Tulsa International Airport
KTUL : now visible

Airfield :











YOU CAN JOIN US ON...

 
LOGIN :

Register | Disclaimer

   EN    FR    IT 

 









Legend :    VFR   Marginal VFR   IFR   Intensive IFR   Very Intensive IFR
Visi :
Ceiling :
>= 8 km
>= 3000ft
5 to 8 km
1000 to 3000 ft
1500m to 5 km
500 to 1000 ft
800 to 1500m
200 to 500 ft
< 800m
< 200 ft
Symbols :   Thunderstorms  Fog  Heavy snow  Heavy precipitations  Wind > 20 kt







- Airport Elevation : 677 ft
- IATA code : TUL


KTUL - Tulsa International

CURRENT METAR :
  • 210353Z 16012KT 10SM BKN013 OVC250 24/22 A2998 RMK AO2 SLP145 T02440222

EXPIRED METARs :
  • 210337Z 16010KT 10SM BKN013 OVC019 24/22 A2998 RMK AO2 T02440222
  • 210253Z 15009KT 10SM OVC015 24/22 A2997 RMK AO2 SLP141 T02440222 53014
  • 210237Z 17010KT 10SM BKN016 OVC250 24/22 A2997 RMK AO2 T02440222
  • 210228Z 17012KT 10SM SCT016 OVC250 24/22 A2997 RMK AO2 T02440222

TAF KTUL
Valid from the 21 at 04:00 until the 22 at 00:00 UTC


210408Z 2104/2124 17013KT P6SM BKN012
FM210800 16009KT P6SM OVC012
TEMPO 2108/2112 3SM -RA BR OVC007
FM211800 18015G23KT P6SM SCT015 BKN050
PROB30 2118/2124 3SM -TSRA BKN015CB
No reported NOTAMs for that airfield.



MET'MAP, your aeronautical weather chart ! - Copyright ORBIFLY December 2007 - Disclaimer

ORBIFLY MET'MAP TEAM :

Programming & Development : Alexandra Zaïnal
Concept & Development : Baudouin d'Aumeries
Co-Development & Prog : Marc-Olivier Méhu
Technical & hardware support : Manuel Goepfert

Contact : metmap@orbifly.com




SOURCES & CREDITS :

   NOAA       Earth
Advisory